createdAt,value
2017-03-26T00:00:57.737Z,9.79
2017-03-26T00:01:57.824Z,9.85
2017-03-26T00:02:57.728Z,9.78
2017-03-26T00:03:57.686Z,9.7
2017-03-26T00:04:57.347Z,9.74
2017-03-26T00:05:57.647Z,9.79
2017-03-26T00:06:57.328Z,9.87
2017-03-26T00:07:57.347Z,9.89
2017-03-26T00:08:57.597Z,9.83
2017-03-26T00:09:57.563Z,9.82
2017-03-26T00:10:57.540Z,9.67
2017-03-26T00:11:57.218Z,9.6
2017-03-26T00:12:57.497Z,9.71
2017-03-26T00:13:57.478Z,9.72
2017-03-26T00:14:56.845Z,9.74
2017-03-26T00:15:57.498Z,9.79
2017-03-26T00:16:57.110Z,9.62
2017-03-26T00:17:57.397Z,9.64
2017-03-26T00:18:57.378Z,9.62
2017-03-26T00:19:57.368Z,9.58
2017-03-26T00:20:57.026Z,9.53
2017-03-26T00:21:57.328Z,9.58
2017-03-26T00:22:57.285Z,9.47
2017-03-26T00:23:57.292Z,9.58
2017-03-26T00:24:57.251Z,9.42
2017-03-26T00:25:56.987Z,9.42
2017-03-26T00:26:57.208Z,9.47
2017-03-26T00:27:57.257Z,9.52
2017-03-26T00:28:56.877Z,9.56
2017-03-26T00:29:57.155Z,9.53
2017-03-26T00:30:56.507Z,9.47
2017-03-26T00:31:57.099Z,9.52
2017-03-26T00:32:57.078Z,9.56
2017-03-26T00:33:57.187Z,9.56
2017-03-26T00:34:56.741Z,9.52
2017-03-26T00:35:57.021Z,9.6
2017-03-26T00:36:56.999Z,9.5
2017-03-26T00:37:56.998Z,9.53
2017-03-26T00:38:56.656Z,9.46
2017-03-26T00:39:56.951Z,9.49
2017-03-26T00:40:56.929Z,9.47
2017-03-26T00:41:56.908Z,9.46
2017-03-26T00:42:56.867Z,9.37
2017-03-26T00:43:56.553Z,9.24
2017-03-26T00:44:56.833Z,8.88
2017-03-26T00:45:56.815Z,8.67
2017-03-26T00:46:56.476Z,8.58
2017-03-26T00:47:56.469Z,8.73
2017-03-26T00:48:56.746Z,8.61
2017-03-26T00:49:56.434Z,8.65
2017-03-26T00:50:56.734Z,8.69
2017-03-26T00:51:56.699Z,8.9
2017-03-26T00:52:56.364Z,8.87
2017-03-26T00:53:56.343Z,8.93
2017-03-26T00:54:56.632Z,9.02
2017-03-26T00:55:56.297Z,8.98
2017-03-26T00:56:56.598Z,8.73
2017-03-26T00:57:56.268Z,8.72
2017-03-26T00:58:56.551Z,8.77
2017-03-26T00:59:55.897Z,8.72
2017-03-26T01:00:56.194Z,8.84
2017-03-26T01:01:56.478Z,8.87
2017-03-26T01:02:56.467Z,8.91
2017-03-26T01:03:56.437Z,8.91
2017-03-26T01:04:56.152Z,8.93
2017-03-26T01:05:56.393Z,9.06
2017-03-26T01:06:55.766Z,9.05
2017-03-26T01:07:56.357Z,8.9
2017-03-26T01:08:55.726Z,8.98
2017-03-26T01:09:56.004Z,9.05
2017-03-26T01:10:56.304Z,8.77
2017-03-26T01:11:55.945Z,8.93
2017-03-26T01:12:56.260Z,8.98
2017-03-26T01:13:56.219Z,8.93
2017-03-26T01:14:56.206Z,9
2017-03-26T01:15:55.867Z,8.94
2017-03-26T01:16:56.167Z,9.03
2017-03-26T01:17:55.587Z,9.03
2017-03-26T01:18:56.161Z,9.14
2017-03-26T01:19:56.109Z,8.94
2017-03-26T01:20:56.093Z,8.52
2017-03-26T01:21:55.756Z,8.37
2017-03-26T01:22:55.726Z,8.34
2017-03-26T01:23:56.015Z,8.32
2017-03-26T01:24:55.995Z,8.43
2017-03-26T01:25:55.675Z,8.29
2017-03-26T01:26:55.966Z,8.27
2017-03-26T01:27:55.628Z,8.21
2017-03-26T01:28:55.619Z,8.36
2017-03-26T01:29:55.876Z,8.32
2017-03-26T01:30:55.876Z,8.15
2017-03-26T01:31:55.841Z,8.3
2017-03-26T01:32:55.528Z,8.19
2017-03-26T01:33:55.802Z,8.33
2017-03-26T01:34:55.807Z,8.09
2017-03-26T01:35:55.458Z,8.11
2017-03-26T01:36:55.436Z,8.29
2017-03-26T01:37:55.717Z,8.34
2017-03-26T01:38:55.385Z,8.37
2017-03-26T01:39:55.679Z,8.14
2017-03-26T01:40:55.638Z,7.93
2017-03-26T01:41:55.323Z,7.91
2017-03-26T01:42:55.631Z,8
2017-03-26T01:43:55.587Z,7.97
2017-03-26T01:44:55.558Z,8.09
2017-03-26T01:45:55.548Z,8.14
2017-03-26T01:46:55.516Z,8.18
2017-03-26T01:47:55.516Z,8.06
2017-03-26T01:48:55.178Z,8.15
2017-03-26T01:49:54.843Z,8.29
2017-03-26T01:50:55.427Z,8.07
2017-03-26T01:51:55.105Z,7.97
2017-03-26T01:52:55.396Z,8.01
2017-03-26T01:53:55.385Z,8.14
2017-03-26T01:54:54.736Z,8.22
2017-03-26T01:55:55.026Z,8.4
2017-03-26T01:56:55.003Z,8.36
2017-03-26T01:57:54.987Z,8.32
2017-03-26T01:58:54.964Z,8.33
2017-03-26T01:59:55.293Z,8
2017-03-26T02:00:54.918Z,8.01
2017-03-26T02:01:55.247Z,7.9
2017-03-26T02:02:55.178Z,7.94
2017-03-26T02:03:54.844Z,7.99
2017-03-26T02:04:54.542Z,8.15
2017-03-26T02:05:55.106Z,8.3
2017-03-26T02:06:55.092Z,8.33
2017-03-26T02:07:54.766Z,8.4
2017-03-26T02:08:55.058Z,8.54
2017-03-26T02:09:55.017Z,8.59
2017-03-26T02:10:54.997Z,8.32
2017-03-26T02:11:54.986Z,8.12
2017-03-26T02:12:54.665Z,8.06
2017-03-26T02:13:54.947Z,8.07
2017-03-26T02:14:54.984Z,8.07
2017-03-26T02:15:54.907Z,8.16
2017-03-26T02:16:54.867Z,8.12
2017-03-26T02:17:54.859Z,8.24
2017-03-26T02:18:54.840Z,8.22
2017-03-26T02:19:54.505Z,8.36
2017-03-26T02:20:54.831Z,8.24
2017-03-26T02:21:54.783Z,8.11
2017-03-26T02:22:54.753Z,7.96
2017-03-26T02:23:54.419Z,7.94
2017-03-26T02:24:54.703Z,7.96
2017-03-26T02:25:54.687Z,7.9
2017-03-26T02:26:54.356Z,7.96
2017-03-26T02:27:54.666Z,8.16
2017-03-26T02:28:54.325Z,7.96
2017-03-26T02:29:54.686Z,7.73
2017-03-26T02:30:54.556Z,7.96
2017-03-26T02:31:54.618Z,7.9
2017-03-26T02:32:54.525Z,7.86
2017-03-26T02:33:54.517Z,8.14
2017-03-26T02:34:54.481Z,8.25
2017-03-26T02:35:54.546Z,8.22
2017-03-26T02:36:54.142Z,8.29
2017-03-26T02:37:54.425Z,8.24
2017-03-26T02:38:54.085Z,8.24
2017-03-26T02:39:54.068Z,8.24
2017-03-26T02:40:54.357Z,8.21
2017-03-26T02:41:54.026Z,7.97
2017-03-26T02:42:54.015Z,7.94
2017-03-26T02:43:54.288Z,7.94
2017-03-26T02:44:54.379Z,7.93
2017-03-26T02:45:53.938Z,7.88
2017-03-26T02:46:54.238Z,7.94
2017-03-26T02:47:53.954Z,8.03
2017-03-26T02:48:54.182Z,8.03
2017-03-26T02:49:54.156Z,8.14
2017-03-26T02:50:54.153Z,8.21
2017-03-26T02:51:53.812Z,8.45
2017-03-26T02:52:53.793Z,8.51
2017-03-26T02:53:54.086Z,8.52
2017-03-26T02:54:53.756Z,8.57
2017-03-26T02:55:54.045Z,8.39
2017-03-26T02:56:53.699Z,8.15
2017-03-26T02:57:53.996Z,8.4
2017-03-26T02:58:53.355Z,8.52
2017-03-26T02:59:53.336Z,8.52
2017-03-26T03:00:53.922Z,8.5
2017-03-26T03:01:53.906Z,8.54
2017-03-26T03:02:53.582Z,8.4
2017-03-26T03:03:53.566Z,8.59
2017-03-26T03:04:53.856Z,8.67
2017-03-26T03:05:53.816Z,8.77
2017-03-26T03:06:53.830Z,8.54
2017-03-26T03:07:53.479Z,8.43
2017-03-26T03:08:53.762Z,8.34
2017-03-26T03:09:53.428Z,8.45
2017-03-26T03:10:53.717Z,8.36
2017-03-26T03:11:53.686Z,8.45
2017-03-26T03:12:53.368Z,8.45
2017-03-26T03:13:53.327Z,8.36
2017-03-26T03:14:53.356Z,8.14
2017-03-26T03:15:53.289Z,8.21
2017-03-26T03:16:53.645Z,8.34
2017-03-26T03:17:53.556Z,8.36
2017-03-26T03:18:53.323Z,8.58
2017-03-26T03:19:53.518Z,8.51
2017-03-26T03:20:53.551Z,8.55
2017-03-26T03:21:53.470Z,8.7
2017-03-26T03:22:53.473Z,8.83
2017-03-26T03:23:53.448Z,8.88
2017-03-26T03:24:53.108Z,9.02
2017-03-26T03:25:53.390Z,8.8
2017-03-26T03:26:53.367Z,8.87
2017-03-26T03:27:53.036Z,8.88
2017-03-26T03:28:53.324Z,8.65
2017-03-26T03:29:52.996Z,8.62
2017-03-26T03:30:53.267Z,8.7
2017-03-26T03:31:53.297Z,8.59
2017-03-26T03:32:52.936Z,8.69
2017-03-26T03:33:53.223Z,8.76
2017-03-26T03:34:53.189Z,8.9
2017-03-26T03:35:52.556Z,8.9
2017-03-26T03:36:53.156Z,8.98
2017-03-26T03:37:53.215Z,8.7
2017-03-26T03:38:53.135Z,8.69
2017-03-26T03:39:53.176Z,8.59
2017-03-26T03:40:52.846Z,8.62
2017-03-26T03:41:52.746Z,8.59
2017-03-26T03:42:53.030Z,8.51
2017-03-26T03:43:52.713Z,8.4
2017-03-26T03:44:53.073Z,8.32
2017-03-26T03:45:52.705Z,8.45
2017-03-26T03:46:52.646Z,8.51
2017-03-26T03:47:52.996Z,8.47
2017-03-26T03:48:52.707Z,8.66
2017-03-26T03:49:52.577Z,8.83
2017-03-26T03:50:52.925Z,8.77
2017-03-26T03:51:52.826Z,8.87
2017-03-26T03:52:52.506Z,8.83
2017-03-26T03:53:52.776Z,8.59
2017-03-26T03:54:52.465Z,8.43
2017-03-26T03:55:52.746Z,8.42
2017-03-26T03:56:52.475Z,8.52
2017-03-26T03:57:52.783Z,8.48
2017-03-26T03:58:52.066Z,8.65
2017-03-26T03:59:52.774Z,8.69
2017-03-26T04:00:52.318Z,8.58
2017-03-26T04:01:52.313Z,8.58
2017-03-26T04:02:52.286Z,8.48
2017-03-26T04:03:52.267Z,8.61
2017-03-26T04:04:52.696Z,8.59
2017-03-26T04:05:52.635Z,8.8
2017-03-26T04:06:52.502Z,8.7
2017-03-26T04:07:52.567Z,8.51
2017-03-26T04:08:52.177Z,8.58
2017-03-26T04:09:52.138Z,8.66
2017-03-26T04:10:52.416Z,8.8
2017-03-26T04:11:52.400Z,8.69
2017-03-26T04:12:52.385Z,8.59
2017-03-26T04:13:52.103Z,8.5
2017-03-26T04:14:52.391Z,8.47
2017-03-26T04:15:52.005Z,8.47
2017-03-26T04:16:52.296Z,8.47
2017-03-26T04:17:52.280Z,8.51
2017-03-26T04:18:52.268Z,8.61
2017-03-26T04:19:52.226Z,8.58
2017-03-26T04:20:51.903Z,8.58
2017-03-26T04:21:51.876Z,8.5
2017-03-26T04:22:52.169Z,8.5
2017-03-26T04:23:51.838Z,8.51
2017-03-26T04:24:51.829Z,8.52
2017-03-26T04:25:51.797Z,8.51
2017-03-26T04:26:52.076Z,8.58
2017-03-26T04:27:52.066Z,8.45
2017-03-26T04:28:52.028Z,8.34
2017-03-26T04:29:52.026Z,8.34
2017-03-26T04:30:51.984Z,8.52
2017-03-26T04:31:51.965Z,8.33
2017-03-26T04:32:51.956Z,8.59
2017-03-26T04:33:51.631Z,8.3
2017-03-26T04:34:51.906Z,8.34
2017-03-26T04:35:51.875Z,8.52
2017-03-26T04:36:51.859Z,8.52
2017-03-26T04:37:51.847Z,8.65
2017-03-26T04:38:51.820Z,8.62
2017-03-26T04:39:51.799Z,8.76
2017-03-26T04:40:51.778Z,8.77
2017-03-26T04:41:51.757Z,8.93
2017-03-26T04:42:51.732Z,8.88
2017-03-26T04:43:51.408Z,8.91
2017-03-26T04:44:51.695Z,8.79
2017-03-26T04:45:51.679Z,8.77
2017-03-26T04:46:51.635Z,8.79
2017-03-26T04:47:51.634Z,8.8
2017-03-26T04:48:51.308Z,8.93
2017-03-26T04:49:51.276Z,8.57
2017-03-26T04:50:51.565Z,8.45
2017-03-26T04:51:51.237Z,8.4
2017-03-26T04:52:51.219Z,8.59
2017-03-26T04:53:51.513Z,8.84
2017-03-26T04:54:51.476Z,8.58
2017-03-26T04:55:51.155Z,8.67
2017-03-26T04:56:51.421Z,8.66
2017-03-26T04:57:51.116Z,8.65
2017-03-26T04:58:51.389Z,8.55
2017-03-26T04:59:50.766Z,8.48
2017-03-26T05:00:51.037Z,8.47
2017-03-26T05:01:51.027Z,8.61
2017-03-26T05:02:51.307Z,8.5
2017-03-26T05:03:50.975Z,8.42
2017-03-26T05:04:51.267Z,8.5
2017-03-26T05:05:51.245Z,8.69
2017-03-26T05:06:51.217Z,8.83
2017-03-26T05:07:50.889Z,8.95
2017-03-26T05:08:51.179Z,8.91
2017-03-26T05:09:51.153Z,8.95
2017-03-26T05:10:50.826Z,8.88
2017-03-26T05:11:51.125Z,8.91
2017-03-26T05:12:51.086Z,8.91
2017-03-26T05:13:51.065Z,8.79
2017-03-26T05:14:50.849Z,8.77
2017-03-26T05:15:51.035Z,8.55
2017-03-26T05:16:51.003Z,8.54
2017-03-26T05:17:50.997Z,8.48
2017-03-26T05:18:50.965Z,8.59
2017-03-26T05:19:50.937Z,8.51
2017-03-26T05:20:50.628Z,8.5
2017-03-26T05:21:50.895Z,8.52
2017-03-26T05:22:50.876Z,8.37
2017-03-26T05:23:50.255Z,8.27
2017-03-26T05:24:50.835Z,8.27
2017-03-26T05:25:50.816Z,8.36
2017-03-26T05:26:50.785Z,8.55
2017-03-26T05:27:50.776Z,8.66
2017-03-26T05:28:50.766Z,8.73
2017-03-26T05:29:50.762Z,8.77
2017-03-26T05:30:50.708Z,8.88
2017-03-26T05:31:50.374Z,8.91
2017-03-26T05:32:50.678Z,8.7
2017-03-26T05:33:50.397Z,8.69
2017-03-26T05:34:50.107Z,8.75
2017-03-26T05:35:50.596Z,8.73
2017-03-26T05:36:50.589Z,8.88
2017-03-26T05:37:49.975Z,8.88
2017-03-26T05:38:50.232Z,8.79
2017-03-26T05:39:50.515Z,8.69
2017-03-26T05:40:50.276Z,8.65
2017-03-26T05:41:50.474Z,8.66
2017-03-26T05:42:50.455Z,8.52
2017-03-26T05:43:50.463Z,8.43
2017-03-26T05:44:50.407Z,8.43
2017-03-26T05:45:50.393Z,8.37
2017-03-26T05:46:50.365Z,8.47
2017-03-26T05:47:50.026Z,8.55
2017-03-26T05:48:50.334Z,8.58
2017-03-26T05:49:49.984Z,8.5
2017-03-26T05:50:49.663Z,8.33
2017-03-26T05:51:49.943Z,8.33
2017-03-26T05:52:49.929Z,8.43
2017-03-26T05:53:50.276Z,8.51
2017-03-26T05:54:50.189Z,8.66
2017-03-26T05:55:49.865Z,8.66
2017-03-26T05:56:49.851Z,8.75
2017-03-26T05:57:49.826Z,8.77
2017-03-26T05:58:49.794Z,8.45
2017-03-26T05:59:50.146Z,8.5
2017-03-26T06:00:49.753Z,8.67
2017-03-26T06:01:50.215Z,8.77
2017-03-26T06:02:49.407Z,8.85
2017-03-26T06:03:49.996Z,8.91
2017-03-26T06:04:49.988Z,8.67
2017-03-26T06:05:49.955Z,8.8
2017-03-26T06:06:49.621Z,8.76
2017-03-26T06:07:49.915Z,8.66
2017-03-26T06:08:49.586Z,8.62
2017-03-26T06:09:49.895Z,8.62
2017-03-26T06:10:49.899Z,8.65
2017-03-26T06:11:49.515Z,8.67
2017-03-26T06:12:49.816Z,8.73
2017-03-26T06:13:49.798Z,8.54
2017-03-26T06:14:49.774Z,8.54
2017-03-26T06:15:49.747Z,8.48
2017-03-26T06:16:49.717Z,8.42
2017-03-26T06:17:49.706Z,8.55
2017-03-26T06:18:49.386Z,8.7
2017-03-26T06:19:49.356Z,8.76
2017-03-26T06:20:49.631Z,8.67
2017-03-26T06:21:49.626Z,8.65
2017-03-26T06:22:49.600Z,8.9
2017-03-26T06:23:48.965Z,9.1
2017-03-26T06:24:49.245Z,9.14
2017-03-26T06:25:49.525Z,9.31
2017-03-26T06:26:49.507Z,9.34
2017-03-26T06:27:49.490Z,9.4
2017-03-26T06:28:49.467Z,9.32
2017-03-26T06:29:49.248Z,9.58
2017-03-26T06:30:49.416Z,9.49
2017-03-26T06:31:49.404Z,9.47
2017-03-26T06:32:49.081Z,9.28
2017-03-26T06:33:49.412Z,9.24
2017-03-26T06:34:49.036Z,9.35
2017-03-26T06:35:49.370Z,9.35
2017-03-26T06:36:49.354Z,9.29
2017-03-26T06:37:49.284Z,9.6
2017-03-26T06:38:49.270Z,9.47
2017-03-26T06:39:49.267Z,9.35
2017-03-26T06:40:49.215Z,9.45
2017-03-26T06:41:49.234Z,9.47
2017-03-26T06:42:48.922Z,9.46
2017-03-26T06:43:49.213Z,9.61
2017-03-26T06:44:49.175Z,9.58
2017-03-26T06:45:49.126Z,9.6
2017-03-26T06:46:49.182Z,9.89
2017-03-26T06:47:49.121Z,9.97
2017-03-26T06:48:48.806Z,10.1
2017-03-26T06:49:49.086Z,9.78
2017-03-26T06:50:48.389Z,9.75
2017-03-26T06:51:49.017Z,9.74
2017-03-26T06:52:48.669Z,9.72
2017-03-26T06:53:48.986Z,9.93
2017-03-26T06:54:49.015Z,10.25
2017-03-26T06:55:48.598Z,10.18
2017-03-26T06:56:48.581Z,10.38
2017-03-26T06:57:48.899Z,10.71
2017-03-26T06:58:48.852Z,10.9
2017-03-26T06:59:48.829Z,10.85
2017-03-26T07:00:48.564Z,11.03
2017-03-26T07:01:48.855Z,11.5
2017-03-26T07:02:48.464Z,11.84
2017-03-26T07:03:48.789Z,11.84
2017-03-26T07:04:48.746Z,11.81
2017-03-26T07:05:48.720Z,12.16
2017-03-26T07:06:48.795Z,12.64
2017-03-26T07:07:48.696Z,13.45
2017-03-26T07:08:48.366Z,12.86
2017-03-26T07:09:48.339Z,12.35
2017-03-26T07:10:48.615Z,12.6
2017-03-26T07:11:48.616Z,12.5
2017-03-26T07:12:48.276Z,13.08
2017-03-26T07:13:48.570Z,12.98
2017-03-26T07:14:48.594Z,13.56
2017-03-26T07:15:48.237Z,14.7
2017-03-26T07:16:48.256Z,15
2017-03-26T07:17:48.493Z,15.44
2017-03-26T07:18:48.516Z,15.27
2017-03-26T07:19:48.149Z,16.26
2017-03-26T07:20:48.473Z,16.16
2017-03-26T07:21:48.465Z,16.45
2017-03-26T07:22:48.397Z,16.46
2017-03-26T07:23:48.076Z,16.5
2017-03-26T07:24:48.358Z,16.93
2017-03-26T07:25:48.335Z,16.78
2017-03-26T07:26:48.013Z,17.24
2017-03-26T07:27:48.374Z,17.82
2017-03-26T07:28:47.989Z,17.12
2017-03-26T07:29:48.302Z,16.94
2017-03-26T07:30:47.998Z,15.98
2017-03-26T07:31:47.937Z,16.16
2017-03-26T07:32:48.215Z,16.74
2017-03-26T07:33:48.202Z,16.87
2017-03-26T07:34:48.197Z,17.92
2017-03-26T07:35:47.565Z,18.73
2017-03-26T07:36:48.157Z,18.52
2017-03-26T07:37:47.828Z,19.06
2017-03-26T07:38:47.825Z,18.78
2017-03-26T07:39:48.113Z,19.74
2017-03-26T07:40:48.091Z,19.8
2017-03-26T07:41:48.065Z,20.26
2017-03-26T07:42:47.750Z,19.86
2017-03-26T07:43:48.059Z,19.41
2017-03-26T07:44:48.029Z,18.7
2017-03-26T07:45:47.694Z,18.9
2017-03-26T07:46:47.998Z,18.67
2017-03-26T07:47:47.669Z,18.7
2017-03-26T07:48:47.955Z,19.81
2017-03-26T07:49:47.634Z,20.43
2017-03-26T07:50:47.645Z,20.25
2017-03-26T07:51:47.915Z,20.81
2017-03-26T07:52:47.288Z,21.26
2017-03-26T07:53:47.597Z,21.24
2017-03-26T07:54:47.567Z,21.5
2017-03-26T07:55:47.873Z,22
2017-03-26T07:56:47.545Z,20.81
2017-03-26T07:57:47.546Z,20.28
2017-03-26T07:58:47.816Z,20.91
2017-03-26T07:59:47.518Z,20.74
2017-03-26T08:00:47.485Z,20.54
2017-03-26T08:01:47.786Z,21.26
2017-03-26T08:02:47.765Z,21.73
2017-03-26T08:03:47.468Z,20.13
2017-03-26T08:04:47.445Z,21.4
2017-03-26T08:05:47.745Z,21.49
2017-03-26T08:06:47.418Z,21.86
2017-03-26T08:07:47.728Z,22.54
2017-03-26T08:08:47.718Z,22.57
2017-03-26T08:09:47.699Z,22.92
2017-03-26T08:10:47.684Z,23.41
2017-03-26T08:11:47.384Z,23.62
2017-03-26T08:12:47.692Z,24.12
2017-03-26T08:13:47.661Z,24.12
2017-03-26T08:14:47.636Z,24.54
2017-03-26T08:15:47.635Z,24.47
2017-03-26T08:16:47.336Z,22.69
2017-03-26T08:17:47.317Z,23.57
2017-03-26T08:18:47.627Z,21.81
2017-03-26T08:19:47.323Z,22.66
2017-03-26T08:20:47.610Z,23.33
2017-03-26T08:21:47.586Z,23.03
2017-03-26T08:22:46.974Z,22.11
2017-03-26T08:23:47.588Z,22.61
2017-03-26T08:24:47.265Z,22.66
2017-03-26T08:25:47.256Z,23.54
2017-03-26T08:26:47.064Z,22.2
2017-03-26T08:27:46.946Z,21.34
2017-03-26T08:28:47.657Z,22
2017-03-26T08:29:47.236Z,22.22
2017-03-26T08:30:47.262Z,21.47
2017-03-26T08:31:47.527Z,20.36
2017-03-26T08:32:47.266Z,20.55
2017-03-26T08:33:47.497Z,19.74
2017-03-26T08:34:47.530Z,20.11
2017-03-26T08:35:47.228Z,21.21
2017-03-26T08:36:47.524Z,22.06
2017-03-26T08:37:47.475Z,21.26
2017-03-26T08:38:47.188Z,22.94
2017-03-26T08:39:47.456Z,23.6
2017-03-26T08:40:47.585Z,23.84
2017-03-26T08:41:47.438Z,24.59
2017-03-26T08:42:47.108Z,24.1
2017-03-26T08:43:47.419Z,24.09
2017-03-26T08:44:47.414Z,24.22
2017-03-26T08:45:47.392Z,24.32
2017-03-26T08:46:47.092Z,24.97
2017-03-26T08:47:47.081Z,24.95
2017-03-26T08:48:47.387Z,23.84
2017-03-26T08:49:47.367Z,24.42
2017-03-26T08:50:47.368Z,23.97
2017-03-26T08:51:47.389Z,24.09
2017-03-26T08:52:47.047Z,23.54
2017-03-26T08:53:47.349Z,23.44
2017-03-26T08:54:47.326Z,23.82
2017-03-26T08:55:47.319Z,24.75
2017-03-26T08:56:47.316Z,25.37
2017-03-26T08:57:47.323Z,25.73
2017-03-26T08:58:47.300Z,26.33
2017-03-26T08:59:47.285Z,25.99
2017-03-26T09:00:47.285Z,24.44
2017-03-26T09:01:47.287Z,23.55
2017-03-26T09:02:47.292Z,22.17
2017-03-26T09:03:47.029Z,22.32
2017-03-26T09:04:47.278Z,23.27
2017-03-26T09:05:46.986Z,22.24
2017-03-26T09:06:47.387Z,23.06
2017-03-26T09:07:47.246Z,23.02
2017-03-26T09:08:47.050Z,22.1
2017-03-26T09:09:47.318Z,22.76
2017-03-26T09:10:47.307Z,22.95
2017-03-26T09:11:47.215Z,23.33
2017-03-26T09:12:47.207Z,24.43
2017-03-26T09:13:47.273Z,24.46
2017-03-26T09:14:47.236Z,25
2017-03-26T09:15:47.197Z,24.59
2017-03-26T09:16:46.958Z,24.78
2017-03-26T09:17:47.179Z,24.22
2017-03-26T09:18:47.189Z,21.88
2017-03-26T09:19:47.194Z,22.91
2017-03-26T09:20:47.138Z,23.69
2017-03-26T09:21:47.116Z,24.59
2017-03-26T09:22:47.135Z,23.55
2017-03-26T09:23:47.121Z,22.65
2017-03-26T09:24:46.797Z,23.22
2017-03-26T09:25:47.117Z,22.69
2017-03-26T09:26:46.783Z,22.51
2017-03-26T09:27:47.123Z,23.17
2017-03-26T09:28:46.759Z,24.09
2017-03-26T09:29:47.052Z,23.88
2017-03-26T09:30:47.075Z,22.8
2017-03-26T09:31:47.070Z,22.06
2017-03-26T09:32:46.860Z,21.04
2017-03-26T09:33:47.047Z,20.85
2017-03-26T09:34:46.726Z,21.92
2017-03-26T09:35:47.010Z,22.02
2017-03-26T09:36:47.058Z,22.14
2017-03-26T09:37:47.014Z,23.03
2017-03-26T09:38:46.999Z,22.65
2017-03-26T09:39:46.983Z,23.47
2017-03-26T09:40:46.441Z,24.65
2017-03-26T09:41:46.991Z,25.27
2017-03-26T09:42:46.653Z,24.42
2017-03-26T09:43:46.982Z,25.1
2017-03-26T09:44:46.932Z,24.7
2017-03-26T09:45:46.933Z,23.73
2017-03-26T09:46:46.919Z,22.08
2017-03-26T09:47:46.921Z,20.97
2017-03-26T09:48:46.598Z,20.31
2017-03-26T09:49:46.921Z,21.26
2017-03-26T09:50:47.041Z,22.54
2017-03-26T09:51:46.908Z,23.12
2017-03-26T09:52:46.898Z,23.55
2017-03-26T09:53:46.883Z,22.82
2017-03-26T09:54:46.856Z,22.36
2017-03-26T09:55:46.880Z,22.02
2017-03-26T09:56:46.839Z,22.45
2017-03-26T09:57:46.884Z,23.19
2017-03-26T09:58:46.839Z,23.73
2017-03-26T09:59:46.888Z,23.44
2017-03-26T10:00:46.497Z,22.57
2017-03-26T10:01:46.858Z,22.66
2017-03-26T10:02:46.836Z,22.76
2017-03-26T10:03:46.847Z,22.66
2017-03-26T10:04:46.828Z,22.15
2017-03-26T10:05:46.457Z,21.25
2017-03-26T10:06:46.798Z,20.78
2017-03-26T10:07:46.465Z,19.11
2017-03-26T10:08:46.435Z,19.06
2017-03-26T10:09:46.809Z,19.19
2017-03-26T10:10:46.421Z,19.61
2017-03-26T10:11:46.400Z,19.61
2017-03-26T10:12:46.754Z,19.77
2017-03-26T10:13:46.709Z,19.78
2017-03-26T10:14:46.695Z,19.62
2017-03-26T10:15:46.700Z,19.55
2017-03-26T10:16:46.680Z,19.77
2017-03-26T10:17:46.360Z,19.67
2017-03-26T10:18:46.381Z,19.58
2017-03-26T10:19:46.648Z,19.43
2017-03-26T10:20:46.645Z,19.3
2017-03-26T10:21:46.651Z,19.85
2017-03-26T10:22:46.629Z,19.99
2017-03-26T10:23:46.624Z,20.36
2017-03-26T10:24:46.619Z,20.1
2017-03-26T10:25:46.619Z,19.31
2017-03-26T10:26:46.590Z,19.14
2017-03-26T10:27:46.600Z,19.22
2017-03-26T10:28:46.588Z,18.47
2017-03-26T10:29:46.573Z,18.44
2017-03-26T10:30:46.563Z,19.18
2017-03-26T10:31:46.550Z,19.58
2017-03-26T10:32:46.539Z,20.08
2017-03-26T10:33:46.547Z,20.18
2017-03-26T10:34:46.342Z,20.26
2017-03-26T10:35:46.520Z,20.33
2017-03-26T10:36:46.342Z,20.18
2017-03-26T10:37:46.198Z,19.34
2017-03-26T10:38:46.499Z,19.21
2017-03-26T10:39:46.551Z,19.31
2017-03-26T10:40:46.479Z,19.58
2017-03-26T10:41:46.458Z,19.52
2017-03-26T10:42:46.455Z,19.93
2017-03-26T10:43:46.452Z,19.99
2017-03-26T10:44:46.419Z,19.81
2017-03-26T10:45:46.534Z,19.07
2017-03-26T10:46:46.414Z,19.04
2017-03-26T10:47:46.448Z,18.44
2017-03-26T10:48:46.409Z,18.47
2017-03-26T10:49:46.089Z,18.84
2017-03-26T10:50:46.380Z,18.99
2017-03-26T10:51:46.441Z,18.48
2017-03-26T10:52:46.360Z,18.8
2017-03-26T10:53:46.343Z,18.52
2017-03-26T10:54:46.333Z,18.95
2017-03-26T10:55:46.013Z,19.11
2017-03-26T10:56:46.310Z,19.08
2017-03-26T10:57:46.308Z,18.73
2017-03-26T10:58:46.299Z,18.62
2017-03-26T10:59:46.282Z,19.02
2017-03-26T11:00:46.261Z,19.48
2017-03-26T11:01:46.249Z,20.07
2017-03-26T11:02:46.259Z,20.33
2017-03-26T11:03:46.247Z,20.32
2017-03-26T11:04:46.218Z,20.78
2017-03-26T11:05:46.203Z,21.03
2017-03-26T11:06:46.197Z,20.2
2017-03-26T11:07:45.900Z,19.78
2017-03-26T11:08:46.170Z,19.7
2017-03-26T11:09:46.217Z,19.95
2017-03-26T11:10:46.151Z,20.03
2017-03-26T11:11:45.832Z,20.32
2017-03-26T11:12:46.139Z,19.99
2017-03-26T11:13:46.124Z,20.35
2017-03-26T11:14:46.117Z,20.33
2017-03-26T11:15:45.793Z,20.43
2017-03-26T11:16:46.089Z,20.62
2017-03-26T11:17:46.090Z,20.48
2017-03-26T11:18:46.078Z,20.88
2017-03-26T11:19:46.066Z,21.09
2017-03-26T11:20:46.063Z,20.49
2017-03-26T11:21:46.033Z,19.52
2017-03-26T11:22:45.731Z,19.55
2017-03-26T11:23:45.719Z,20.07
2017-03-26T11:24:45.697Z,20.44
2017-03-26T11:25:45.975Z,20.72
2017-03-26T11:26:45.677Z,20.54
2017-03-26T11:27:45.966Z,20.11
2017-03-26T11:28:45.655Z,19.37
2017-03-26T11:29:45.953Z,19.91
2017-03-26T11:30:45.930Z,19.38
2017-03-26T11:31:45.912Z,19.86
2017-03-26T11:32:45.613Z,19.71
2017-03-26T11:33:45.600Z,19.99
2017-03-26T11:34:45.890Z,20.25
2017-03-26T11:35:45.869Z,20.08
2017-03-26T11:36:45.567Z,19.71
2017-03-26T11:37:45.853Z,19.71
2017-03-26T11:38:45.987Z,19.71
2017-03-26T11:39:45.826Z,20.03
2017-03-26T11:40:45.920Z,20.81
2017-03-26T11:41:45.807Z,20.4
2017-03-26T11:42:45.507Z,20.51
2017-03-26T11:43:45.818Z,20.31
2017-03-26T11:44:45.526Z,20.41
2017-03-26T11:45:45.507Z,20.23
2017-03-26T11:46:45.447Z,20.82
2017-03-26T11:47:45.749Z,21.09
2017-03-26T11:48:45.761Z,20.69
2017-03-26T11:49:45.418Z,21.03
2017-03-26T11:50:45.763Z,20.73
2017-03-26T11:51:45.692Z,20.81
2017-03-26T11:52:45.445Z,21.46
2017-03-26T11:53:45.380Z,21.83
2017-03-26T11:54:45.378Z,20.85
2017-03-26T11:55:45.638Z,21.17
2017-03-26T11:56:45.647Z,21.68
2017-03-26T11:57:45.637Z,21.4
2017-03-26T11:58:45.618Z,20.36
2017-03-26T11:59:45.303Z,19.31
2017-03-26T12:00:45.598Z,18.97
2017-03-26T12:01:45.609Z,19.44
2017-03-26T12:02:45.628Z,19.85
2017-03-26T12:03:45.619Z,19.95
2017-03-26T12:04:45.554Z,20.2
2017-03-26T12:05:45.588Z,19.51
2017-03-26T12:06:45.536Z,19.49
2017-03-26T12:07:45.529Z,20.44
2017-03-26T12:08:45.206Z,21.06
2017-03-26T12:09:45.555Z,20.66
2017-03-26T12:10:45.165Z,20.73
2017-03-26T12:11:45.469Z,20.64
2017-03-26T12:12:45.455Z,21.18
2017-03-26T12:13:45.286Z,21.18
2017-03-26T12:14:45.449Z,21.43
2017-03-26T12:15:45.126Z,20.84
2017-03-26T12:16:45.416Z,20.58
2017-03-26T12:17:45.408Z,19.63
2017-03-26T12:18:45.095Z,19.93
2017-03-26T12:19:45.394Z,20.6
2017-03-26T12:20:45.383Z,20.62
2017-03-26T12:21:45.046Z,20.48
2017-03-26T12:22:45.351Z,20.72
2017-03-26T12:23:45.355Z,20.97
2017-03-26T12:24:45.073Z,21.33
2017-03-26T12:25:45.015Z,21.68
2017-03-26T12:26:45.107Z,20.58
2017-03-26T12:27:45.298Z,20.16
2017-03-26T12:28:44.978Z,19.78
2017-03-26T12:29:45.276Z,20.16
2017-03-26T12:30:44.976Z,20.41
2017-03-26T12:31:45.247Z,20.48
2017-03-26T12:32:45.391Z,20.85
2017-03-26T12:33:45.346Z,20.29
2017-03-26T12:34:45.392Z,20.04
2017-03-26T12:35:45.016Z,19.73
2017-03-26T12:36:45.195Z,20.38
2017-03-26T12:37:45.201Z,20.01
2017-03-26T12:38:44.865Z,20.31
2017-03-26T12:39:45.266Z,20.33
2017-03-26T12:40:45.240Z,20.82
2017-03-26T12:41:45.241Z,21.36
2017-03-26T12:42:45.144Z,21.68
2017-03-26T12:43:44.898Z,21.64
2017-03-26T12:44:45.165Z,21.76
2017-03-26T12:45:45.096Z,21.31
2017-03-26T12:46:45.178Z,21.1
2017-03-26T12:47:44.815Z,21.1
2017-03-26T12:48:45.066Z,20.49
2017-03-26T12:49:45.048Z,20.14
2017-03-26T12:50:44.766Z,20.11
2017-03-26T12:51:44.728Z,19.77
2017-03-26T12:52:45.037Z,19.62
2017-03-26T12:53:44.998Z,18.78
2017-03-26T12:54:44.987Z,18.55
2017-03-26T12:55:44.666Z,19.23
2017-03-26T12:56:44.794Z,19.96
2017-03-26T12:57:44.376Z,20.48
2017-03-26T12:58:44.652Z,19.58
2017-03-26T12:59:44.640Z,18.92
2017-03-26T13:00:44.935Z,19.02
2017-03-26T13:01:44.916Z,19.25
2017-03-26T13:02:44.611Z,19.34
2017-03-26T13:03:44.598Z,20.1
2017-03-26T13:04:44.578Z,20.31
2017-03-26T13:05:44.871Z,19.74
2017-03-26T13:06:44.910Z,19.55
2017-03-26T13:07:44.536Z,20.16
2017-03-26T13:08:44.528Z,20.54
2017-03-26T13:09:44.820Z,20.85